AirNav   Phillips 66 Aviation Fuel
 
 1305 users online  

O66 Homestead Farms Airport
Pond Creek, Oklahoma, USA

GOING TO POND CREEK?


FAA INFORMATION EFFECTIVE 06 DECEMBER 2018

Location

FAA Identifier: O66
Lat/Long: 36-41-30.1090N / 097-43-36.1890W
36-41.501817N / 097-43.603150W
36.6916969 / -97.7267192
(estimated)
Elevation: 1030 ft. / 314 m (estimated)
Variation: 07E (1985)
From city: 4 miles E of POND CREEK, OK
Time zone: UTC -6 (UTC -5 during Daylight Saving Time)
Zip code: 73766

Airport Operations

Airport use: Open to the public
Activation date: 02/1973
Control tower: no
ARTCC: KANSAS CITY CENTER
FSS: MC ALESTER FLIGHT SERVICE STATION
NOTAMs facility: MLC (NOTAM-D service available)
Attendance: UNATNDD
Wind indicator: yes
Segmented circle: no

Airport Communications

CTAF: 122.9
WX AWOS-3 at BKN (18 nm E): 120.575 (580-363-0688)
WX AWOS-3 at WDG (19 nm S): 120.625 (580-237-1475)

Nearby radio navigation aids

VOR radial/distance  VOR name  Freq  Var
ODGr001/19.3WOODRING VOR/DME109.0008E
ENDr019/22.8VANCE VORTAC115.4005E
PERr257/27.4PIONEER VORTAC113.2006E
ANYr136/35.2ANTHONY VORTAC112.9007E

Airport Services

Airframe service: NONE
Powerplant service: NONE

Runway Information

Runway 17/35

Dimensions: 2800 x 21 ft. / 853 x 6 m
Surface: asphalt/turf, in poor condition
BOTH TURF RY ENDS MUDDY WHEN WET WITH 3 FT TALL GRASS. PARTS OF ASPHALT PORTION BROKEN AND DETERIORATED.
ASPH STRIP 1600 FT BY 21 FT MIDDLE OF RY; 600 FT ON BOTH ENDS TURF.
RUNWAY 17  RUNWAY 35
Traffic pattern: leftleft
Markings: nonenone
Obstructions: 4 ft. fence4 ft. fence

Airport Ownership and Management from official FAA records

Ownership: Privately-owned
Owner: DAVID T KIRK
HOMESTEAD FARMS, 19854 CR960, RT 2 BOX 10
POND CREEK, OK 73766
Phone 580-532-4970
Manager: DAVID T KIRK
19854 CR960
POND CREEK, OK 73766
Phone 580-532-4970

Airport Operational Statistics

Aircraft based on the field: 1
Single engine airplanes: 1
    
Aircraft operations: 25/year *
100% local general aviation
* for 12-month period ending 19 September 2018

Additional Remarks

RWY 17/35 N 600 FT CLSD. RWY 17/35 S 670 FT CLSD.

Instrument Procedures

There are no published instrument procedures at O66.

Some nearby airports with instrument procedures:

O53 - Medford Municipal Airport (6 nm N)
KBKN - Blackwell-Tonkawa Municipal Airport (18 nm E)
KWDG - Enid Woodring Regional Airport (19 nm S)
KEND - Vance Air Force Base (23 nm SW)
F22 - Perry Municipal Airport (28 nm SE)
 
Loc | Ops | Rwys | IFR | FBO | Links
Com | Nav | Svcs | Stats | Notes


 
Area around O66 (Homestead Farms Airport)
 
Road maps at: MapQuest Bing Google
 
Aerial photo
WARNING: Photo may not be current or correct
Aerial photo of O66 (Homestead Farms Airport)
Do you have a better or more recent aerial photo of Homestead Farms Airport that you would like to share? If so, please send us your photo.

 
Sectional chart

 
Airport distance calculator
Flying to Homestead Farms Airport? Find the distance to fly.

From to O66

Sunrise and sunset
Times for 14-Dec-2018
 Local
(UTC-6)
 Zulu
(UTC)
Morning civil twilight07:0813:08
Sunrise07:3613:36
Sunset17:1523:15
Evening civil twilight17:4423:44

Current date and time
Zulu (UTC)  14-Dec-2018 18:41:04
Local (UTC-6)  14-Dec-2018 12:41:04
 
METAR
KBKN 
18nm E 
141815Z AUTO 36022KT 10SM CLR 10/M01 A3019 RMK AO2
KWDG 
20nm S 
141750Z 34023G30KT 10SM SCT150 09/M01 A3017
KEND 
24nm S 
141756Z 34022G33KT 10SM CLR 08/M03 A3018 RMK AO2A PK WND 35033/46 SLP227 T00821033 10082 20008 50000 $
KPNC 
30nm E 
141753Z AUTO 36020G25KT 10SM CLR 09/01 A3016 RMK AO2 PK WND 01029/1715 SLP215 T00890006 10089 20000 58004
TAF
KEND 
24nm S 
141100Z 1411/1517 36015G30KT 9999 FEW030 540302 QNH3009INS BECMG 1423/1424 34009KT 9999 SKC QNH3018INS TX09/1421Z TN00/1510Z
KPNC 
30nm E 
141723Z 1418/1518 36018G26KT P6SM FEW015 FM150000 36009KT P6SM SKC
NOTAMs
Click for the latest NOTAMs
NOTAMs are issued by the DoD/FAA and will open in a separate window not controlled by AirNav.

 

 
 

Would you like to see your business listed on this page?

 If your business provides an interesting product or service to pilots, flight crews, aircraft, or users of the Homestead Farms Airport, you should consider listing it here.  To start the listing process, click on the button below
 
Add a business
 

Other Pages about Homestead Farms Airport

Update a link
 
Copyright © AirNav, LLC. All rights reserved. Privacy Policy  Contact